createdAt,value
2022-09-23T00:02:12.730Z,70.20
2022-09-23T00:04:41.934Z,70.20
2022-09-23T00:07:10.335Z,70.30
2022-09-23T00:09:38.324Z,70.50
2022-09-23T00:12:10.655Z,70.30
2022-09-23T00:14:39.806Z,70.40
2022-09-23T00:17:08.324Z,70.30
2022-09-23T00:19:36.368Z,70.40
2022-09-23T00:22:04.878Z,70.30
2022-09-23T00:24:33.366Z,70.50
2022-09-23T00:27:01.843Z,70.50
2022-09-23T00:29:32.315Z,70.40
2022-09-23T00:32:00.317Z,70.40
2022-09-23T00:34:29.721Z,70.10
2022-09-23T00:36:58.398Z,70.10
2022-09-23T00:39:27.538Z,70.30
2022-09-23T00:41:56.209Z,70.50
2022-09-23T00:44:49.843Z,70.50
2022-09-23T00:47:25.723Z,70.80
2022-09-23T00:50:01.762Z,70.70
2022-09-23T00:52:32.093Z,70.70
2022-09-23T00:55:02.600Z,70.70
2022-09-23T00:57:31.702Z,70.60
2022-09-23T01:00:01.697Z,70.50
2022-09-23T01:02:29.923Z,70.80
2022-09-23T01:04:59.093Z,70.70
2022-09-23T01:07:27.132Z,70.90
2022-09-23T01:09:55.646Z,71.00
2022-09-23T01:12:42.413Z,71.10
2022-09-23T01:15:18.401Z,71.40
2022-09-23T01:17:55.966Z,71.40
2022-09-23T01:20:47.812Z,72.20
2022-09-23T01:23:57.655Z,71.60
2022-09-23T01:26:49.628Z,71.50
2022-09-23T01:29:47.998Z,71.30
2022-09-23T01:32:26.270Z,71.30
2022-09-23T01:35:05.984Z,71.40
2022-09-23T01:37:42.386Z,71.60
2022-09-23T01:40:16.193Z,71.70
2022-09-23T01:42:48.934Z,71.70
2022-09-23T01:45:23.483Z,71.80
2022-09-23T01:47:57.564Z,71.80
2022-09-23T01:50:47.584Z,71.80
2022-09-23T01:53:22.747Z,71.90
2022-09-23T01:55:57.693Z,72.00
2022-09-23T01:58:29.660Z,71.80
2022-09-23T02:01:01.560Z,71.80
2022-09-23T02:03:35.503Z,72.00
2022-09-23T02:06:07.155Z,72.10
2022-09-23T02:08:39.345Z,72.00
2022-09-23T02:11:10.765Z,72.00
2022-09-23T02:13:42.957Z,72.00
2022-09-23T02:16:15.781Z,72.00
2022-09-23T02:18:50.333Z,72.20
2022-09-23T02:21:20.412Z,72.20
2022-09-23T02:23:54.293Z,72.20
2022-09-23T02:26:29.122Z,72.10
2022-09-23T02:29:03.092Z,72.00
2022-09-23T02:31:38.720Z,72.10
2022-09-23T02:34:19.309Z,72.30
2022-09-23T02:36:57.204Z,72.50
2022-09-23T02:39:31.540Z,72.50
2022-09-23T02:42:06.063Z,72.30
2022-09-23T02:44:34.849Z,72.40
2022-09-23T02:47:03.826Z,72.40
2022-09-23T02:49:36.549Z,72.50
2022-09-23T02:52:08.070Z,72.60
2022-09-23T02:54:38.288Z,72.60
2022-09-23T02:57:10.121Z,72.70
2022-09-23T02:59:39.452Z,72.70
2022-09-23T03:02:17.495Z,72.70
2022-09-23T03:04:57.053Z,72.80
2022-09-23T03:07:33.587Z,72.80
2022-09-23T03:10:10.693Z,72.70
2022-09-23T03:12:43.908Z,72.60
2022-09-23T03:15:24.388Z,72.60
2022-09-23T03:18:03.098Z,72.60
2022-09-23T03:20:36.014Z,72.60
2022-09-23T03:23:08.955Z,72.60
2022-09-23T03:25:39.847Z,72.60
2022-09-23T03:28:09.235Z,72.60
2022-09-23T03:30:38.578Z,72.60
2022-09-23T03:33:10.691Z,72.80
2022-09-23T03:36:02.868Z,72.90
2022-09-23T03:38:36.537Z,73.00
2022-09-23T03:41:07.254Z,72.80
2022-09-23T03:43:38.864Z,72.80
2022-09-23T03:46:09.761Z,72.80
2022-09-23T03:48:37.823Z,73.00
2022-09-23T03:51:21.186Z,73.10
2022-09-23T03:53:49.354Z,74.30
2022-09-23T03:56:17.552Z,73.30
2022-09-23T03:58:46.522Z,73.30
2022-09-23T04:01:16.327Z,73.40
2022-09-23T04:03:44.901Z,73.50
2022-09-23T04:06:14.991Z,73.60
2022-09-23T04:08:43.045Z,73.60
2022-09-23T04:11:11.835Z,73.60
2022-09-23T04:13:40.531Z,74.50
2022-09-23T04:16:09.061Z,73.60
2022-09-23T04:18:37.156Z,73.60
2022-09-23T04:21:05.838Z,73.60
2022-09-23T04:23:35.689Z,73.40
2022-09-23T04:26:05.414Z,73.40
2022-09-23T04:28:33.490Z,73.30
2022-09-23T04:31:05.022Z,73.20
2022-09-23T04:33:33.940Z,73.40
2022-09-23T04:36:02.672Z,73.30
2022-09-23T04:38:31.594Z,73.20
2022-09-23T04:41:01.429Z,73.30
2022-09-23T04:43:29.439Z,73.40
2022-09-23T04:46:01.941Z,73.40
2022-09-23T04:48:30.150Z,73.40
2022-09-23T04:51:04.098Z,73.20
2022-09-23T04:53:32.755Z,73.40
2022-09-23T04:56:06.800Z,73.40
2022-09-23T04:58:35.300Z,74.50
2022-09-23T05:01:10.605Z,73.60
2022-09-23T05:03:39.900Z,73.80
2022-09-23T05:06:09.239Z,73.80
2022-09-23T05:08:37.786Z,73.80
2022-09-23T05:11:08.101Z,73.90
2022-09-23T05:13:36.415Z,74.00
2022-09-23T05:16:07.106Z,74.00
2022-09-23T05:18:36.013Z,74.10
2022-09-23T05:21:04.778Z,74.10
2022-09-23T05:23:33.321Z,74.10
2022-09-23T05:26:03.775Z,74.00
2022-09-23T05:28:35.396Z,74.10
2022-09-23T05:31:04.933Z,73.30
2022-09-23T05:33:33.332Z,74.10
2022-09-23T05:36:02.021Z,73.90
2022-09-23T05:38:31.572Z,73.90
2022-09-23T05:41:00.895Z,73.90
2022-09-23T05:43:29.943Z,73.90
2022-09-23T05:46:08.144Z,73.90
2022-09-23T05:48:37.801Z,74.20
2022-09-23T05:51:12.786Z,74.10
2022-09-23T05:53:43.134Z,74.10
2022-09-23T05:56:11.791Z,74.10
2022-09-23T05:58:40.475Z,74.10
2022-09-23T06:01:15.084Z,74.10
2022-09-23T06:03:43.636Z,74.20
2022-09-23T06:06:15.854Z,74.10
2022-09-23T06:08:43.868Z,74.30
2022-09-23T06:11:12.843Z,74.40
2022-09-23T06:13:42.117Z,74.50
2022-09-23T06:16:13.867Z,74.70
2022-09-23T06:18:43.478Z,74.80
2022-09-23T06:21:14.171Z,75.00
2022-09-23T06:23:42.395Z,76.00
2022-09-23T06:26:13.397Z,75.10
2022-09-23T06:28:43.150Z,76.20
2022-09-23T06:31:15.363Z,75.30
2022-09-23T06:33:44.973Z,75.40
2022-09-23T06:36:26.867Z,75.40
2022-09-23T06:38:59.542Z,75.70
2022-09-23T06:41:27.558Z,75.80
2022-09-23T06:43:55.972Z,75.90
2022-09-23T06:46:25.752Z,76.10
2022-09-23T06:48:54.297Z,76.20
2022-09-23T06:51:22.355Z,76.40
2022-09-23T06:53:51.463Z,76.50
2022-09-23T06:56:21.175Z,76.50
2022-09-23T06:58:50.926Z,76.80
2022-09-23T07:01:20.326Z,76.90
2022-09-23T07:03:50.239Z,77.10
2022-09-23T07:06:19.127Z,77.30
2022-09-23T07:08:48.781Z,77.50
2022-09-23T07:11:19.427Z,77.60
2022-09-23T07:13:47.872Z,77.80
2022-09-23T07:16:16.440Z,77.80
2022-09-23T07:18:45.105Z,77.90
2022-09-23T07:21:17.496Z,78.10
2022-09-23T07:23:46.938Z,78.40
2022-09-23T07:26:15.912Z,78.60
2022-09-23T07:28:45.504Z,78.70
2022-09-23T07:31:18.726Z,78.90
2022-09-23T07:33:57.784Z,79.10
2022-09-23T07:36:28.459Z,79.30
2022-09-23T07:39:03.161Z,79.10
2022-09-23T07:41:33.350Z,79.10
2022-09-23T07:44:01.466Z,79.20
2022-09-23T07:46:32.378Z,79.70
2022-09-23T07:49:02.002Z,79.90
2022-09-23T07:51:36.253Z,80.10
2022-09-23T07:54:07.830Z,80.10
2022-09-23T07:56:37.498Z,80.00
2022-09-23T07:59:09.303Z,79.80
2022-09-23T08:01:39.872Z,79.90
2022-09-23T08:04:13.875Z,79.60
2022-09-23T08:06:44.610Z,79.60
2022-09-23T08:09:13.550Z,79.60
2022-09-23T08:11:42.772Z,80.10
2022-09-23T08:14:11.309Z,78.80
2022-09-23T08:16:40.302Z,79.00
2022-09-23T08:19:08.617Z,78.70
2022-09-23T08:21:38.108Z,79.00
2022-09-23T08:24:07.796Z,78.80
2022-09-23T08:26:36.953Z,78.90
2022-09-23T08:29:05.244Z,78.50
2022-09-23T08:31:33.819Z,78.30
2022-09-23T08:34:01.811Z,78.10
2022-09-23T08:36:30.344Z,77.90
2022-09-23T08:38:58.382Z,77.90
2022-09-23T08:41:36.115Z,78.10
2022-09-23T08:44:09.658Z,76.80
2022-09-23T08:46:42.591Z,77.40
2022-09-23T08:49:15.678Z,77.20
2022-09-23T08:51:48.471Z,76.90
2022-09-23T08:54:19.078Z,76.90
2022-09-23T08:56:52.363Z,76.80
2022-09-23T08:59:29.565Z,76.30
2022-09-23T09:02:01.170Z,76.30
2022-09-23T09:04:39.770Z,75.90
2022-09-23T09:07:35.773Z,76.70
2022-09-23T09:10:08.140Z,75.60
2022-09-23T09:12:43.438Z,75.50
2022-09-23T09:15:15.798Z,75.30
2022-09-23T09:17:55.339Z,75.20
2022-09-23T09:20:25.937Z,75.20
2022-09-23T09:22:58.074Z,75.00
2022-09-23T09:25:40.898Z,74.90
2022-09-23T09:28:17.335Z,74.50
2022-09-23T09:30:48.634Z,74.20
2022-09-23T09:33:20.588Z,74.30
2022-09-23T09:36:09.628Z,74.20
2022-09-23T09:38:38.430Z,73.70
2022-09-23T09:41:15.931Z,73.70
2022-09-23T09:43:52.343Z,73.40
2022-09-23T09:46:37.905Z,73.10
2022-09-23T09:49:13.023Z,72.90
2022-09-23T09:51:42.577Z,72.70
2022-09-23T09:54:20.494Z,72.60
2022-09-23T09:56:50.452Z,72.10
2022-09-23T09:59:25.576Z,72.30
2022-09-23T10:02:14.877Z,71.80
2022-09-23T10:04:43.481Z,71.40
2022-09-23T10:07:15.982Z,71.80
2022-09-23T10:09:51.212Z,71.40
2022-09-23T10:12:21.098Z,71.00
2022-09-23T10:14:52.406Z,71.20
2022-09-23T10:17:24.904Z,71.00
2022-09-23T10:20:00.265Z,70.70
2022-09-23T10:22:32.998Z,70.50
2022-09-23T10:25:05.810Z,70.20
2022-09-23T10:27:36.264Z,70.00
2022-09-23T10:30:08.338Z,69.90
2022-09-23T10:32:40.435Z,69.50
2022-09-23T10:35:18.079Z,69.20
2022-09-23T10:37:49.903Z,68.60
2022-09-23T10:40:44.857Z,68.30
2022-09-23T10:43:46.833Z,67.60
2022-09-23T10:46:38.464Z,67.60
2022-09-23T10:49:33.084Z,67.80
2022-09-23T10:52:14.158Z,67.40
2022-09-23T10:54:54.638Z,67.00
2022-09-23T10:57:42.990Z,66.90
2022-09-23T11:00:23.395Z,66.60
2022-09-23T11:03:20.751Z,66.00
2022-09-23T11:06:01.242Z,64.90
2022-09-23T11:08:48.143Z,65.30
2022-09-23T11:11:29.764Z,65.00
2022-09-23T11:14:16.303Z,64.70
2022-09-23T11:16:58.185Z,63.70
2022-09-23T11:19:54.276Z,63.40
2022-09-23T11:22:37.990Z,63.90
2022-09-23T11:25:31.695Z,63.70
2022-09-23T11:28:24.014Z,62.90
2022-09-23T11:31:05.607Z,63.60
2022-09-23T11:33:53.974Z,63.00
2022-09-23T11:36:28.610Z,63.40
2022-09-23T11:39:01.224Z,62.40
2022-09-23T11:41:31.895Z,62.80
2022-09-23T11:44:08.532Z,63.10
2022-09-23T11:46:42.197Z,63.10
2022-09-23T11:49:15.895Z,63.40
2022-09-23T11:51:58.578Z,63.30
2022-09-23T11:54:31.561Z,61.90
2022-09-23T11:57:04.923Z,61.30
2022-09-23T11:59:40.896Z,61.80
2022-09-23T12:02:23.058Z,61.60
2022-09-23T12:05:01.679Z,62.70
2022-09-23T12:07:44.999Z,61.50
2022-09-23T12:10:15.363Z,60.50
2022-09-23T12:12:48.919Z,60.60
2022-09-23T12:15:28.416Z,59.40
2022-09-23T12:18:27.770Z,59.30
2022-09-23T12:21:08.343Z,59.10
2022-09-23T12:24:03.648Z,59.20
2022-09-23T12:26:33.656Z,58.00
2022-09-23T12:29:05.869Z,59.00
2022-09-23T12:31:42.027Z,58.40
2022-09-23T12:34:24.654Z,58.50
2022-09-23T12:36:52.922Z,56.10
2022-09-23T12:39:30.785Z,58.10
2022-09-23T12:42:01.048Z,57.20
2022-09-23T12:44:37.260Z,57.50
2022-09-23T12:47:40.104Z,57.40
2022-09-23T12:50:42.375Z,55.40
2022-09-23T12:53:54.509Z,56.20
2022-09-23T12:56:27.523Z,55.40
2022-09-23T12:59:03.641Z,56.30
2022-09-23T13:01:37.942Z,55.50
2022-09-23T13:04:23.963Z,56.10
2022-09-23T13:06:58.761Z,56.90
2022-09-23T13:09:30.634Z,55.70
2022-09-23T13:12:02.324Z,56.20
2022-09-23T13:14:33.458Z,55.90
2022-09-23T13:17:02.257Z,56.20
2022-09-23T13:19:47.149Z,55.50
2022-09-23T13:22:15.653Z,54.50
2022-09-23T13:24:46.441Z,55.30
2022-09-23T13:27:29.511Z,54.20
2022-09-23T13:30:05.575Z,53.30
2022-09-23T13:32:35.878Z,52.70
2022-09-23T13:35:08.297Z,53.40
2022-09-23T13:37:45.472Z,52.70
2022-09-23T13:40:24.215Z,52.60
2022-09-23T13:42:58.964Z,51.60
2022-09-23T13:45:31.338Z,51.70
2022-09-23T13:48:05.186Z,52.10
2022-09-23T13:50:35.172Z,51.90
2022-09-23T13:53:13.248Z,51.80
2022-09-23T13:55:41.710Z,51.50
2022-09-23T13:58:24.428Z,51.40
2022-09-23T14:00:52.896Z,49.80
2022-09-23T14:03:30.234Z,51.30
2022-09-23T14:06:03.288Z,50.50
2022-09-23T14:08:33.063Z,51.30
2022-09-23T14:11:02.301Z,50.90
2022-09-23T14:13:34.819Z,51.00
2022-09-23T14:16:05.164Z,51.00
2022-09-23T14:18:40.003Z,50.70
2022-09-23T14:21:25.208Z,49.80
2022-09-23T14:23:53.217Z,49.90
2022-09-23T14:26:22.078Z,49.50
2022-09-23T14:28:51.906Z,48.80
2022-09-23T14:31:20.568Z,49.00
2022-09-23T14:33:48.689Z,49.50
2022-09-23T14:36:51.472Z,49.70
2022-09-23T14:39:19.721Z,48.70
2022-09-23T14:41:47.830Z,49.00
2022-09-23T14:44:23.492Z,48.70
2022-09-23T14:46:56.945Z,47.80
2022-09-23T14:49:26.062Z,47.50
2022-09-23T14:51:56.120Z,48.00
2022-09-23T14:54:38.169Z,47.80
2022-09-23T14:57:25.697Z,46.90
2022-09-23T14:59:58.000Z,46.10
2022-09-23T15:02:31.352Z,46.10
2022-09-23T15:05:19.094Z,46.10
2022-09-23T15:07:51.101Z,46.10
2022-09-23T15:10:27.792Z,46.60
2022-09-23T15:13:08.148Z,46.30
2022-09-23T15:15:38.303Z,46.70
2022-09-23T15:18:09.039Z,46.70
2022-09-23T15:20:38.157Z,47.00
2022-09-23T15:23:06.177Z,47.00
2022-09-23T15:25:35.878Z,47.20
2022-09-23T15:28:19.771Z,47.10
2022-09-23T15:30:50.826Z,47.30
2022-09-23T15:33:18.863Z,47.10
2022-09-23T15:35:50.765Z,47.50
2022-09-23T15:38:19.240Z,47.20
2022-09-23T15:40:48.088Z,47.60
2022-09-23T15:43:20.908Z,47.70
2022-09-23T15:45:53.559Z,47.70
2022-09-23T15:48:25.399Z,48.10
2022-09-23T15:50:54.661Z,47.50
2022-09-23T15:53:26.156Z,47.30
2022-09-23T15:55:54.410Z,47.30
2022-09-23T15:58:23.666Z,47.30
2022-09-23T16:00:56.826Z,47.20
2022-09-23T16:03:28.986Z,47.40
2022-09-23T16:06:02.409Z,47.50
2022-09-23T16:08:32.949Z,47.50
2022-09-23T16:11:01.879Z,47.70
2022-09-23T16:13:30.337Z,47.60
2022-09-23T16:15:59.800Z,47.80
2022-09-23T16:18:28.314Z,48.10
2022-09-23T16:20:57.368Z,48.30
2022-09-23T16:23:35.908Z,48.90
2022-09-23T16:26:13.926Z,49.10
2022-09-23T16:28:42.303Z,49.30
2022-09-23T16:31:12.304Z,49.40
2022-09-23T16:33:40.764Z,49.60
2022-09-23T16:36:14.373Z,49.70
2022-09-23T16:38:42.491Z,49.70
2022-09-23T16:41:12.133Z,50.50
2022-09-23T16:43:40.979Z,50.10
2022-09-23T16:46:09.693Z,50.40
2022-09-23T16:48:40.903Z,50.70
2022-09-23T16:51:09.792Z,50.80
2022-09-23T16:53:39.261Z,51.00
2022-09-23T16:56:09.662Z,51.20
2022-09-23T16:58:38.095Z,51.20
2022-09-23T17:01:25.012Z,51.40
2022-09-23T17:03:54.881Z,51.40
2022-09-23T17:06:24.490Z,51.50
2022-09-23T17:08:52.481Z,51.60
2022-09-23T17:11:21.445Z,51.60
2022-09-23T17:13:50.752Z,51.90
2022-09-23T17:16:26.820Z,52.00
2022-09-23T17:18:56.943Z,52.20
2022-09-23T17:21:26.657Z,52.40
2022-09-23T17:23:56.945Z,52.60
2022-09-23T17:26:27.514Z,52.70
2022-09-23T17:28:57.615Z,52.90
2022-09-23T17:31:26.843Z,53.10
2022-09-23T17:33:56.702Z,53.30
2022-09-23T17:36:24.867Z,53.30
2022-09-23T17:38:54.385Z,53.30
2022-09-23T17:41:23.060Z,53.50
2022-09-23T17:43:55.414Z,53.70
2022-09-23T17:46:23.957Z,53.90
2022-09-23T17:48:52.941Z,54.00
2022-09-23T17:51:22.501Z,54.10
2022-09-23T17:53:51.706Z,54.10
2022-09-23T17:56:21.464Z,54.50
2022-09-23T17:58:51.440Z,54.60
2022-09-23T18:01:22.254Z,54.70
2022-09-23T18:03:55.383Z,54.90
2022-09-23T18:06:27.139Z,55.10
2022-09-23T18:08:55.973Z,55.10
2022-09-23T18:11:25.689Z,55.00
2022-09-23T18:13:55.303Z,55.30
2022-09-23T18:16:26.399Z,55.50
2022-09-23T18:18:55.441Z,55.70
2022-09-23T18:21:27.606Z,55.60
2022-09-23T18:24:06.489Z,55.70
2022-09-23T18:26:44.358Z,55.70
2022-09-23T18:29:12.519Z,55.70
2022-09-23T18:31:41.643Z,55.90
2022-09-23T18:34:13.063Z,55.90
2022-09-23T18:36:43.919Z,56.10
2022-09-23T18:39:12.184Z,56.20
2022-09-23T18:41:41.272Z,56.20
2022-09-23T18:44:10.136Z,56.30
2022-09-23T18:46:38.778Z,56.50
2022-09-23T18:49:24.564Z,56.40
2022-09-23T18:51:56.181Z,56.50
2022-09-23T18:54:25.330Z,56.70
2022-09-23T18:56:53.970Z,56.60
2022-09-23T18:59:25.321Z,56.70
2022-09-23T19:01:54.930Z,56.90
2022-09-23T19:04:25.230Z,57.00
2022-09-23T19:06:56.539Z,57.10
2022-09-23T19:09:25.196Z,57.30
2022-09-23T19:11:54.259Z,57.30
2022-09-23T19:14:22.671Z,57.40
2022-09-23T19:16:51.636Z,57.20
2022-09-23T19:19:20.266Z,57.20
2022-09-23T19:21:48.335Z,57.40
2022-09-23T19:24:21.385Z,57.50
2022-09-23T19:26:50.383Z,57.50
2022-09-23T19:29:22.225Z,57.60
2022-09-23T19:31:51.067Z,57.80
2022-09-23T19:34:24.174Z,57.80
2022-09-23T19:36:53.273Z,58.00
2022-09-23T19:39:24.064Z,57.90
2022-09-23T19:41:54.487Z,58.20
2022-09-23T19:44:24.859Z,58.40
2022-09-23T19:46:56.678Z,58.50
2022-09-23T19:49:26.502Z,58.60
2022-09-23T19:51:56.540Z,58.70
2022-09-23T19:54:27.540Z,58.80
2022-09-23T19:56:56.195Z,58.90
2022-09-23T19:59:26.719Z,58.90
2022-09-23T20:01:55.061Z,59.00
2022-09-23T20:04:24.006Z,59.20
2022-09-23T20:06:52.031Z,59.30
2022-09-23T20:09:20.258Z,59.40
2022-09-23T20:11:50.145Z,59.40
2022-09-23T20:14:19.467Z,59.60
2022-09-23T20:16:47.593Z,59.70
2022-09-23T20:19:16.122Z,59.80
2022-09-23T20:21:44.853Z,59.80
2022-09-23T20:24:14.170Z,60.00
2022-09-23T20:26:59.525Z,60.00
2022-09-23T20:29:29.368Z,60.20
2022-09-23T20:32:00.623Z,60.10
2022-09-23T20:34:30.120Z,60.20
2022-09-23T20:36:59.270Z,60.30
2022-09-23T20:39:27.607Z,60.40
2022-09-23T20:41:55.713Z,60.50
2022-09-23T20:44:24.443Z,60.60
2022-09-23T20:46:54.320Z,61.50
2022-09-23T20:49:23.163Z,60.70
2022-09-23T20:51:51.691Z,60.70
2022-09-23T20:54:20.474Z,60.90
2022-09-23T20:56:49.364Z,61.00
2022-09-23T20:59:17.962Z,61.10
2022-09-23T21:01:48.047Z,61.30
2022-09-23T21:04:17.867Z,61.50
2022-09-23T21:06:46.303Z,61.70
2022-09-23T21:09:14.841Z,61.70
2022-09-23T21:11:43.312Z,61.80
2022-09-23T21:14:11.518Z,61.80
2022-09-23T21:16:40.657Z,61.90
2022-09-23T21:19:09.479Z,62.20
2022-09-23T21:21:39.209Z,62.30
2022-09-23T21:24:39.759Z,62.50
2022-09-23T21:26:56.170Z,62.50
2022-09-23T21:29:24.679Z,62.50
2022-09-23T21:31:52.837Z,62.70
2022-09-23T21:34:20.926Z,62.90
2022-09-23T21:36:50.734Z,63.00
2022-09-23T21:39:19.463Z,63.10
2022-09-23T21:41:47.944Z,63.10
2022-09-23T21:44:15.955Z,63.50
2022-09-23T21:46:44.828Z,63.70
2022-09-23T21:49:13.658Z,63.50
2022-09-23T21:51:42.302Z,63.90
2022-09-23T21:54:16.048Z,64.00
2022-09-23T21:56:45.974Z,64.40
2022-09-23T21:59:14.179Z,64.40
2022-09-23T22:01:45.285Z,64.60
2022-09-23T22:04:17.520Z,64.80
2022-09-23T22:06:46.468Z,64.80
2022-09-23T22:09:21.165Z,64.80
2022-09-23T22:12:09.908Z,65.10
2022-09-23T22:14:39.387Z,64.90
2022-09-23T22:17:10.406Z,65.00
2022-09-23T22:19:45.591Z,65.10
2022-09-23T22:22:17.636Z,65.30
2022-09-23T22:24:48.474Z,65.40
2022-09-23T22:27:18.347Z,65.50
2022-09-23T22:30:04.305Z,65.50
2022-09-23T22:32:47.303Z,65.50
2022-09-23T22:35:19.105Z,65.40
2022-09-23T22:37:47.899Z,65.50
2022-09-23T22:40:17.581Z,65.70
2022-09-23T22:42:46.625Z,65.80
2022-09-23T22:45:15.092Z,66.00
2022-09-23T22:47:45.541Z,66.20
2022-09-23T22:50:15.729Z,66.40
2022-09-23T22:52:44.186Z,66.40
2022-09-23T22:55:13.734Z,66.60
2022-09-23T22:57:43.122Z,66.80
2022-09-23T23:00:13.559Z,66.70
2022-09-23T23:02:42.459Z,66.70
2022-09-23T23:05:10.909Z,66.60
2022-09-23T23:07:38.950Z,66.80
2022-09-23T23:10:17.372Z,66.80
2022-09-23T23:12:47.481Z,66.90
2022-09-23T23:15:16.298Z,66.80
2022-09-23T23:17:44.377Z,66.90
2022-09-23T23:20:13.221Z,67.00
2022-09-23T23:22:41.278Z,67.20
2022-09-23T23:25:10.926Z,67.70
2022-09-23T23:27:39.011Z,67.50
2022-09-23T23:30:10.086Z,67.60
2022-09-23T23:32:38.272Z,67.90
2022-09-23T23:35:07.718Z,67.90
2022-09-23T23:37:35.793Z,67.90
2022-09-23T23:40:04.506Z,67.90
2022-09-23T23:42:32.933Z,68.00
2022-09-23T23:45:01.000Z,68.10
2022-09-23T23:47:30.918Z,68.20
2022-09-23T23:49:59.094Z,68.40
2022-09-23T23:52:27.519Z,68.40
2022-09-23T23:54:55.508Z,68.40
2022-09-23T23:57:23.973Z,68.30
2022-09-23T23:59:51.978Z,68.50
